Bookmark and Share
Track history (hours):
 

Pulau Tioman

Last reported at 2014-Apr-11 14:32 UTC. Time now 2014-Apr-17 03:58 UTC.
Position N 35°16' E 140°39'.

Length 120 m; draft 6.5 m.

Type: Cargo ship. MMSI: 356613000.

NotesDate/timePositionNaut miles runAvg speedWind from/ knotsBaromVisibWave heightAir tempDewpointWater temp
2014-Apr-11 14:32N 35°16' E 140°39'2814.1
2014-Apr-11 12:34N 34°58' E 140°12'1414.0
2014-Apr-11 11:32N 34°50' E 139°58'1312.8
2014-Apr-11 10:33N 34°55' E 139°44'1313.0
2014-Apr-11 09:33N 35°08' E 139°45'1212.0
2014-Apr-11 08:34N 35°20' E 139°43'8 7.8
2014-Apr-11 07:31N 35°28' E 139°41'0 0.0
2014-Apr-11 06:31N 35°28' E 139°41'0 0.0
2014-Apr-11 05:31N 35°28' E 139°41'0 0.0
2014-Apr-11 04:31N 35°28' E 139°41'0 0.4
2014-Apr-11 03:34N 35°28' E 139°41'3 2.9
2014-Apr-11 02:32N 35°25' E 139°41'0 0.0
2014-Apr-11 01:32N 35°25' E 139°41'0 0.0
2014-Apr-11 00:32N 35°25' E 139°41'0 0.0
2014-Apr-10 23:32N 35°25' E 139°41'0 0.0
2014-Apr-10 22:32N 35°25' E 139°41'0 0.0
2014-Apr-10 21:32N 35°25' E 139°41'0 0.0
2014-Apr-10 20:32N 35°25' E 139°41'0 0.0
2014-Apr-10 19:32N 35°25' E 139°41'0 0.0
2014-Apr-10 18:32N 35°25' E 139°41'0 0.0
2014-Apr-10 17:32N 35°25' E 139°41'0 0.0
2014-Apr-10 16:29N 35°25' E 139°41'0 0.0
2014-Apr-10 15:32N 35°25' E 139°41'0 0.0
2014-Apr-10 14:32N 35°25' E 139°41'0 0.0
2014-Apr-10 13:32N 35°25' E 139°41'0 0.0
2014-Apr-10 12:32N 35°25' E 139°41'0 0.0
2014-Apr-10 11:29N 35°25' E 139°41'0 0.0
2014-Apr-10 10:29N 35°25' E 139°41'0 0.0
2014-Apr-10 09:32N 35°25' E 139°41'0 0.0
2014-Apr-10 08:29N 35°25' E 139°41'0 0.0
2014-Apr-10 07:32N 35°25' E 139°41'0 0.0
2014-Apr-10 06:32N 35°25' E 139°41'0 0.0
2014-Apr-10 05:32N 35°25' E 139°41'0 0.0
2014-Apr-10 04:34N 35°25' E 139°41'1 1.0
2014-Apr-10 03:32N 35°26' E 139°42'0 0.0
2014-Apr-10 02:23N 35°26' E 139°42'0 0.0
2014-Apr-10 01:32N 35°26' E 139°42'0 0.0
2014-Apr-10 00:17N 35°26' E 139°42'0 0.1
2014-Apr-09 23:26N 35°26' E 139°42'2 2.2
2014-Apr-09 22:33N 35°24' E 139°44'9 9.2
2014-Apr-09 21:33N 35°15' E 139°47'1111.3
2014-Apr-09 20:33N 35°04' E 139°45'1613.0
2014-Apr-09 19:18N 34°56' E 139°29'231 6.6
2014-Apr-08 08:33N 33°56' E 134°58'1313.1
2014-Apr-08 07:33N 34°09' E 134°58'1313.1
2014-Apr-08 06:33N 34°22' E 135°01'1313.0
2014-Apr-08 05:33N 34°31' E 135°12'1010.3
2014-Apr-08 04:33N 34°41' E 135°15'1 0.9
2014-Apr-08 03:28N 34°42' E 135°15'0 0.0
2014-Apr-08 02:22N 34°42' E 135°15'0 0.0
2014-Apr-08 01:28N 34°42' E 135°15'0 0.0
2014-Apr-08 00:22N 34°42' E 135°15'0 0.0
2014-Apr-07 23:28N 34°42' E 135°15'0 0.0
2014-Apr-07 22:28N 34°42' E 135°15'0 0.0
2014-Apr-07 21:10N 34°42' E 135°15'0 0.0
2014-Apr-07 20:28N 34°42' E 135°15'0 0.0
2014-Apr-07 19:28N 34°42' E 135°15'0 0.0
2014-Apr-07 17:28N 34°42' E 135°15'0 0.0
2014-Apr-07 16:28N 34°42' E 135°15'0 0.0
2014-Apr-07 15:28N 34°42' E 135°15'0 0.0
2014-Apr-07 14:28N 34°42' E 135°15'0 0.0
2014-Apr-07 13:28N 34°42' E 135°15'0 0.0
2014-Apr-07 12:28N 34°42' E 135°15'0 0.0
2014-Apr-07 11:28N 34°42' E 135°15'0 0.0
2014-Apr-07 10:28N 34°42' E 135°15'0 0.0
2014-Apr-07 09:28N 34°42' E 135°15'0 0.0
2014-Apr-07 08:28N 34°42' E 135°15'0 0.0
2014-Apr-07 07:04N 34°42' E 135°15'0 0.0
2014-Apr-07 06:22N 34°42' E 135°15'0 0.0
2014-Apr-07 05:28N 34°42' E 135°15'0 0.0
2014-Apr-07 04:22N 34°42' E 135°15'0 0.0
2014-Apr-07 03:28N 34°42' E 135°15'0 0.0
2014-Apr-07 02:28N 34°42' E 135°15'0 0.0
2014-Apr-07 01:22N 34°42' E 135°15'0 0.4
2014-Apr-07 00:33N 34°42' E 135°15'4 4.0
2014-Apr-06 23:29N 34°37' E 135°15'0 0.1
2014-Apr-06 22:29N 34°37' E 135°15'0 0.0
2014-Apr-06 21:23N 34°37' E 135°15'0 0.0
2014-Apr-06 20:23N 34°37' E 135°15'0 0.0
2014-Apr-06 19:29N 34°37' E 135°15'0 0.1
2014-Apr-06 18:29N 34°37' E 135°15'0 0.0
2014-Apr-06 17:23N 34°37' E 135°15'0 0.1
2014-Apr-06 16:29N 34°37' E 135°15'0 0.0
2014-Apr-06 15:23N 34°37' E 135°15'0 0.0
2014-Apr-06 14:29N 34°37' E 135°15'0 0.0
2014-Apr-06 13:29N 34°37' E 135°15'0 0.0
2014-Apr-06 12:29N 34°37' E 135°15'0 0.0
2014-Apr-06 11:29N 34°37' E 135°15'0 0.0
2014-Apr-06 10:29N 34°37' E 135°15'0 0.0
2014-Apr-06 09:29N 34°37' E 135°15'0 0.1
2014-Apr-06 08:32N 34°37' E 135°15'0 0.0
2014-Apr-06 07:32N 34°37' E 135°15'0 0.0
2014-Apr-06 06:32N 34°37' E 135°15'0 0.0
2014-Apr-06 05:32N 34°37' E 135°15'0 0.1
2014-Apr-06 04:32N 34°37' E 135°15'0 0.0
2014-Apr-06 03:32N 34°37' E 135°15'0 0.1
2014-Apr-06 02:32N 34°37' E 135°15'0 0.0
2014-Apr-06 01:32N 34°37' E 135°15'0 0.0
2014-Apr-06 00:32N 34°37' E 135°15'0 0.0
2014-Apr-05 23:32N 34°37' E 135°15'0 0.0
2014-Apr-05 22:32N 34°37' E 135°15'0 0.0
2014-Apr-05 21:32N 34°37' E 135°15'0 0.1
2014-Apr-05 20:32N 34°37' E 135°15'0 0.0
2014-Apr-05 19:32N 34°37' E 135°15'0 0.0
2014-Apr-05 18:32N 34°37' E 135°15'0 0.0
2014-Apr-05 17:32N 34°37' E 135°15'0 0.0
2014-Apr-05 16:32N 34°37' E 135°15'0 0.0
2014-Apr-05 15:32N 34°37' E 135°15'0 0.0
2014-Apr-05 14:32N 34°37' E 135°15'0 0.1
2014-Apr-05 13:32N 34°37' E 135°15'0 0.0
2014-Apr-05 12:32N 34°37' E 135°15'0 0.0
2014-Apr-05 11:32N 34°37' E 135°15'0 0.0
2014-Apr-05 10:26N 34°37' E 135°15'0 0.0
2014-Apr-05 09:26N 34°37' E 135°15'0 0.0
2014-Apr-05 08:32N 34°37' E 135°15'0 0.0
2014-Apr-05 07:20N 34°37' E 135°15'0 0.0
2014-Apr-05 06:32N 34°37' E 135°15'0 0.0
2014-Apr-05 05:32N 34°37' E 135°15'0 0.0
2014-Apr-05 04:32N 34°37' E 135°15'0 0.0
2014-Apr-05 03:26N 34°37' E 135°15'0 0.1
2014-Apr-05 02:32N 34°37' E 135°15'0 0.1
2014-Apr-05 01:32N 34°37' E 135°15'1 1.4
2014-Apr-05 00:33N 34°36' E 135°15'4 4.4
2014-Apr-04 23:33N 34°35' E 135°10'8 8.2
2014-Apr-04 22:32N 34°37' E 135°00'21111.7
2014-Apr-04 04:29N 34°03' E 130°47'  

Dump ship's entire track history

sailing weather and tide predictions

Pulau Tioman — 3EYO9 — position and weather